Terminal Aerodrome Forecast
Issued by NWS

Home | Current Version | Previous Version | Text Only | Print | Product List | Glossary On
Versions: 1 2 3 4 5 6 7 8 9 10 11 12 13
000
FTUS42 KMHX 310800 AAA
TAFPGV
TAF AMD
KPGV 310821Z 3108/0106 13003KT P6SM BKN250
     FM311000 14003KT 4SM BR BKN250
     FM311300 12005KT P6SM BKN250
     FM311700 05006KT P6SM SCT040 BKN250
     FM010100 15005KT P6SM SCT250
      AMD LTD TO CLD VIS AND WIND=

USA.gov is the U.S. government's official web portal to all federal, state and local government web resources and services.